createdAt,value
2023-04-15T00:00:35.480Z,10.88
2023-04-15T00:03:02.499Z,10.89
2023-04-15T00:05:28.971Z,10.86
2023-04-15T00:07:55.490Z,10.89
2023-04-15T00:10:21.829Z,10.88
2023-04-15T00:12:48.157Z,10.99
2023-04-15T00:15:14.520Z,11.00
2023-04-15T00:17:41.200Z,11.00
2023-04-15T00:20:07.658Z,11.00
2023-04-15T00:22:34.008Z,10.86
2023-04-15T00:25:00.343Z,10.90
2023-04-15T00:27:26.696Z,10.88
2023-04-15T00:29:53.402Z,11.15
2023-04-15T00:32:20.304Z,11.23
2023-04-15T00:34:47.176Z,11.17
2023-04-15T00:37:13.522Z,10.97
2023-04-15T00:39:40.103Z,10.91
2023-04-15T00:42:06.461Z,11.39
2023-04-15T00:44:33.382Z,11.45
2023-04-15T00:46:59.805Z,11.73
2023-04-15T00:49:27.134Z,11.32
2023-04-15T00:51:53.529Z,11.42
2023-04-15T00:54:19.919Z,11.69
2023-04-15T00:56:46.718Z,11.63
2023-04-15T00:59:13.182Z,11.85
2023-04-15T01:01:39.980Z,11.58
2023-04-15T01:04:07.063Z,11.69
2023-04-15T01:06:34.072Z,11.71
2023-04-15T01:09:00.786Z,11.57
2023-04-15T01:11:27.386Z,11.55
2023-04-15T01:13:53.805Z,11.24
2023-04-15T01:16:20.268Z,11.42
2023-04-15T01:18:46.951Z,11.45
2023-04-15T01:21:13.497Z,11.16
2023-04-15T01:23:40.186Z,10.92
2023-04-15T01:26:11.010Z,10.67
2023-04-15T01:28:38.350Z,10.47
2023-04-15T01:31:05.692Z,10.28
2023-04-15T01:33:32.349Z,10.48
2023-04-15T01:35:58.700Z,10.62
2023-04-15T01:38:25.236Z,10.47
2023-04-15T01:40:51.785Z,10.37
2023-04-15T01:43:18.985Z,10.42
2023-04-15T01:45:45.731Z,10.31
2023-04-15T01:48:12.369Z,10.34
2023-04-15T01:50:39.021Z,10.27
2023-04-15T01:53:05.385Z,10.21
2023-04-15T01:55:31.795Z,10.17
2023-04-15T01:57:58.182Z,10.04
2023-04-15T02:00:24.926Z,10.02
2023-04-15T02:02:51.852Z,9.93
2023-04-15T02:05:18.381Z,9.91
2023-04-15T02:07:47.282Z,10.05
2023-04-15T02:10:13.691Z,9.88
2023-04-15T02:12:40.715Z,9.82
2023-04-15T02:15:07.206Z,9.91
2023-04-15T02:17:34.916Z,9.82
2023-04-15T02:20:01.336Z,9.74
2023-04-15T02:22:27.848Z,9.59
2023-04-15T02:24:55.043Z,9.74
2023-04-15T02:27:22.493Z,9.86
2023-04-15T02:29:52.232Z,9.84
2023-04-15T02:32:20.110Z,9.71
2023-04-15T02:34:46.843Z,10.13
2023-04-15T02:37:13.790Z,10.04
2023-04-15T02:39:40.209Z,9.93
2023-04-15T02:42:07.283Z,9.94
2023-04-15T02:44:35.193Z,9.85
2023-04-15T02:47:04.880Z,9.65
2023-04-15T02:49:31.303Z,9.63
2023-04-15T02:51:58.211Z,9.69
2023-04-15T02:54:24.761Z,10.12
2023-04-15T02:56:52.186Z,10.00
2023-04-15T02:59:18.546Z,10.17
2023-04-15T03:01:45.076Z,10.41
2023-04-15T03:04:11.853Z,10.59
2023-04-15T03:06:38.442Z,10.12
2023-04-15T03:09:07.710Z,9.83
2023-04-15T03:11:40.448Z,9.70
2023-04-15T03:14:08.630Z,9.56
2023-04-15T03:16:37.850Z,9.59
2023-04-15T03:19:04.346Z,9.36
2023-04-15T03:21:33.028Z,9.15
2023-04-15T03:23:59.588Z,9.20
2023-04-15T03:26:26.224Z,9.28
2023-04-15T03:28:52.691Z,9.28
2023-04-15T03:31:19.302Z,9.34
2023-04-15T03:33:45.736Z,9.28
2023-04-15T03:36:12.851Z,9.19
2023-04-15T03:38:39.249Z,9.27
2023-04-15T03:41:05.999Z,9.25
2023-04-15T03:43:32.372Z,9.23
2023-04-15T03:46:00.230Z,9.11
2023-04-15T03:48:28.130Z,9.09
2023-04-15T03:50:54.506Z,9.04
2023-04-15T03:53:20.860Z,9.08
2023-04-15T03:55:47.728Z,9.04
2023-04-15T03:58:14.094Z,9.03
2023-04-15T04:00:41.466Z,9.07
2023-04-15T04:03:08.507Z,9.19
2023-04-15T04:05:37.119Z,9.14
2023-04-15T04:08:03.511Z,9.07
2023-04-15T04:10:29.875Z,9.06
2023-04-15T04:12:56.229Z,9.00
2023-04-15T04:15:22.630Z,8.92
2023-04-15T04:17:49.013Z,8.91
2023-04-15T04:20:15.614Z,8.76
2023-04-15T04:22:42.024Z,8.74
2023-04-15T04:25:08.652Z,8.89
2023-04-15T04:27:35.150Z,8.88
2023-04-15T04:30:01.554Z,8.90
2023-04-15T04:32:27.915Z,8.96
2023-04-15T04:34:54.436Z,8.86
2023-04-15T04:37:20.818Z,8.90
2023-04-15T04:39:47.164Z,8.86
2023-04-15T04:42:13.533Z,8.89
2023-04-15T04:44:39.869Z,8.98
2023-04-15T04:47:07.534Z,8.96
2023-04-15T04:49:33.942Z,8.92
2023-04-15T04:52:00.495Z,8.80
2023-04-15T04:54:27.689Z,8.74
2023-04-15T04:56:54.068Z,8.79
2023-04-15T04:59:20.410Z,8.73
2023-04-15T05:01:46.833Z,8.70
2023-04-15T05:04:13.496Z,8.72
2023-04-15T05:06:39.976Z,8.87
2023-04-15T05:09:06.648Z,8.88
2023-04-15T05:11:33.055Z,8.66
2023-04-15T05:14:01.644Z,8.89
2023-04-15T05:16:28.049Z,8.86
2023-04-15T05:18:54.436Z,8.97
2023-04-15T05:21:20.973Z,9.01
2023-04-15T05:23:47.313Z,9.00
2023-04-15T05:26:13.711Z,9.10
2023-04-15T05:28:40.093Z,9.29
2023-04-15T05:31:07.344Z,8.99
2023-04-15T05:33:33.713Z,8.76
2023-04-15T05:36:00.053Z,8.82
2023-04-15T05:38:27.274Z,8.81
2023-04-15T05:40:53.672Z,8.80
2023-04-15T05:43:20.004Z,8.79
2023-04-15T05:45:46.751Z,9.09
2023-04-15T05:48:13.100Z,8.96
2023-04-15T05:50:39.473Z,9.42
2023-04-15T05:53:06.302Z,9.31
2023-04-15T05:55:32.877Z,9.38
2023-04-15T05:57:59.213Z,9.55
2023-04-15T06:00:25.978Z,9.36
2023-04-15T06:02:53.170Z,9.47
2023-04-15T06:05:19.974Z,9.73
2023-04-15T06:07:48.353Z,9.91
2023-04-15T06:10:14.995Z,9.98
2023-04-15T06:12:41.362Z,9.77
2023-04-15T06:15:09.912Z,9.92
2023-04-15T06:17:36.317Z,9.92
2023-04-15T06:20:05.078Z,9.62
2023-04-15T06:22:31.453Z,10.15
2023-04-15T06:25:06.860Z,9.69
2023-04-15T06:27:33.315Z,9.87
2023-04-15T06:29:59.676Z,10.35
2023-04-15T06:32:28.467Z,10.07
2023-04-15T06:34:55.079Z,10.10
2023-04-15T06:37:21.424Z,10.14
2023-04-15T06:39:47.869Z,10.34
2023-04-15T06:42:14.251Z,10.57
2023-04-15T06:44:40.626Z,10.45
2023-04-15T06:47:07.025Z,10.60
2023-04-15T06:49:33.769Z,10.69
2023-04-15T06:52:00.682Z,11.01
2023-04-15T06:54:27.416Z,11.14
2023-04-15T06:56:53.794Z,10.86
2023-04-15T06:59:20.158Z,10.90
2023-04-15T07:01:46.640Z,10.81
2023-04-15T07:04:13.495Z,10.74
2023-04-15T07:06:39.876Z,11.18
2023-04-15T07:09:06.318Z,10.99
2023-04-15T07:11:32.683Z,10.93
2023-04-15T07:13:59.041Z,11.10
2023-04-15T07:16:27.082Z,11.29
2023-04-15T07:18:55.826Z,11.38
2023-04-15T07:21:22.476Z,10.87
2023-04-15T07:23:52.057Z,11.34
2023-04-15T07:26:18.476Z,11.04
2023-04-15T07:28:46.290Z,11.29
2023-04-15T07:31:12.760Z,11.13
2023-04-15T07:33:39.148Z,11.63
2023-04-15T07:36:05.590Z,11.79
2023-04-15T07:38:31.976Z,11.74
2023-04-15T07:40:58.344Z,12.20
2023-04-15T07:43:24.780Z,11.43
2023-04-15T07:45:51.143Z,11.49
2023-04-15T07:48:18.119Z,11.84
2023-04-15T07:50:44.749Z,12.07
2023-04-15T07:53:11.103Z,12.26
2023-04-15T07:55:37.457Z,12.03
2023-04-15T07:58:03.845Z,11.80
2023-04-15T08:00:30.538Z,11.93
2023-04-15T08:02:57.500Z,11.92
2023-04-15T08:05:24.053Z,12.22
2023-04-15T08:07:50.591Z,12.67
2023-04-15T08:10:16.999Z,12.03
2023-04-15T08:12:43.446Z,12.05
2023-04-15T08:15:09.814Z,12.20
2023-04-15T08:17:36.212Z,12.15
2023-04-15T08:20:02.593Z,12.25
2023-04-15T08:22:29.098Z,12.55
2023-04-15T08:24:55.566Z,12.40
2023-04-15T08:27:22.059Z,12.45
2023-04-15T08:29:48.484Z,12.43
2023-04-15T08:32:15.292Z,12.50
2023-04-15T08:34:41.873Z,12.91
2023-04-15T08:37:08.247Z,12.75
2023-04-15T08:39:34.584Z,12.26
2023-04-15T08:42:01.869Z,12.28
2023-04-15T08:44:28.523Z,12.42
2023-04-15T08:46:54.875Z,12.92
2023-04-15T08:49:22.537Z,12.90
2023-04-15T08:51:49.593Z,12.87
2023-04-15T08:54:16.147Z,13.58
2023-04-15T08:56:42.720Z,12.60
2023-04-15T08:59:09.806Z,12.59
2023-04-15T09:01:36.469Z,12.57
2023-04-15T09:04:03.030Z,12.63
2023-04-15T09:06:29.529Z,12.96
2023-04-15T09:08:55.881Z,12.96
2023-04-15T09:11:22.223Z,13.31
2023-04-15T09:13:48.870Z,12.83
2023-04-15T09:16:15.583Z,13.29
2023-04-15T09:18:42.043Z,13.05
2023-04-15T09:21:08.958Z,13.54
2023-04-15T09:23:35.770Z,13.22
2023-04-15T09:26:02.440Z,13.33
2023-04-15T09:28:28.917Z,13.71
2023-04-15T09:30:55.342Z,13.52
2023-04-15T09:33:21.760Z,13.53
2023-04-15T09:35:48.088Z,13.61
2023-04-15T09:38:14.430Z,13.27
2023-04-15T09:40:41.068Z,13.31
2023-04-15T09:43:07.513Z,12.79
2023-04-15T09:45:33.898Z,13.00
2023-04-15T09:48:00.302Z,13.41
2023-04-15T09:50:27.097Z,13.29
2023-04-15T09:52:53.648Z,13.73
2023-04-15T09:55:20.313Z,13.38
2023-04-15T09:57:47.424Z,13.80
2023-04-15T10:00:14.172Z,13.05
2023-04-15T10:02:40.949Z,13.19
2023-04-15T10:05:07.384Z,13.17
2023-04-15T10:07:33.994Z,13.55
2023-04-15T10:10:00.636Z,13.26
2023-04-15T10:12:26.989Z,13.58
2023-04-15T10:14:53.427Z,13.25
2023-04-15T10:17:19.949Z,14.00
2023-04-15T10:19:46.758Z,13.53
2023-04-15T10:22:13.147Z,13.31
2023-04-15T10:24:39.498Z,13.69
2023-04-15T10:27:06.251Z,13.95
2023-04-15T10:29:35.631Z,13.96
2023-04-15T10:32:02.080Z,13.68
2023-04-15T10:34:28.506Z,14.43
2023-04-15T10:36:54.852Z,13.57
2023-04-15T10:39:21.268Z,13.92
2023-04-15T10:41:47.799Z,13.68
2023-04-15T10:44:14.167Z,13.93
2023-04-15T10:46:40.612Z,13.72
2023-04-15T10:49:07.052Z,13.51
2023-04-15T10:51:33.351Z,13.54
2023-04-15T10:53:59.851Z,13.89
2023-04-15T10:56:26.229Z,13.70
2023-04-15T10:58:52.693Z,13.62
2023-04-15T11:01:19.193Z,13.31
2023-04-15T11:03:45.896Z,13.38
2023-04-15T11:06:12.382Z,13.71
2023-04-15T11:08:38.793Z,13.50
2023-04-15T11:11:05.243Z,13.20
2023-04-15T11:13:33.122Z,13.48
2023-04-15T11:16:01.300Z,13.21
2023-04-15T11:18:28.450Z,13.97
2023-04-15T11:20:56.414Z,14.08
2023-04-15T11:23:24.952Z,13.72
2023-04-15T11:25:51.368Z,13.81
2023-04-15T11:28:18.109Z,13.51
2023-04-15T11:30:44.647Z,13.48
2023-04-15T11:33:12.211Z,13.35
2023-04-15T11:35:40.960Z,13.05
2023-04-15T11:38:09.734Z,13.58
2023-04-15T11:40:36.163Z,13.68
2023-04-15T11:43:02.550Z,13.01
2023-04-15T11:45:28.940Z,13.94
2023-04-15T11:47:55.332Z,13.34
2023-04-15T11:50:22.004Z,13.13
2023-04-15T11:52:48.382Z,13.45
2023-04-15T11:55:15.505Z,13.39
2023-04-15T11:57:41.865Z,13.32
2023-04-15T12:00:09.724Z,13.71
2023-04-15T12:02:36.875Z,13.78
2023-04-15T12:05:03.906Z,13.57
2023-04-15T12:07:30.331Z,13.43
2023-04-15T12:09:57.121Z,13.08
2023-04-15T12:12:23.531Z,13.46
2023-04-15T12:14:49.944Z,13.48
2023-04-15T12:17:16.649Z,13.26
2023-04-15T12:19:45.299Z,13.32
2023-04-15T12:22:11.686Z,13.56
2023-04-15T12:24:38.162Z,13.12
2023-04-15T12:27:04.591Z,13.41
2023-04-15T12:29:30.973Z,13.41
2023-04-15T12:31:57.471Z,13.74
2023-04-15T12:34:24.371Z,13.36
2023-04-15T12:36:50.714Z,13.59
2023-04-15T12:39:17.116Z,13.61
2023-04-15T12:41:43.445Z,13.92
2023-04-15T12:44:10.029Z,13.13
2023-04-15T12:46:36.528Z,13.42
2023-04-15T12:49:03.125Z,13.24
2023-04-15T12:51:29.901Z,13.70
2023-04-15T12:53:56.304Z,13.36
2023-04-15T12:56:23.857Z,13.09
2023-04-15T12:58:50.243Z,13.08
2023-04-15T13:01:16.615Z,13.02
2023-04-15T13:03:43.154Z,12.97
2023-04-15T13:06:09.630Z,12.80
2023-04-15T13:08:38.552Z,12.82
2023-04-15T13:11:07.323Z,12.93
2023-04-15T13:13:33.780Z,12.86
2023-04-15T13:16:00.807Z,12.81
2023-04-15T13:18:27.239Z,12.83
2023-04-15T13:20:53.668Z,12.85
2023-04-15T13:23:20.220Z,13.44
2023-04-15T13:25:46.638Z,12.92
2023-04-15T13:28:12.989Z,12.75
2023-04-15T13:30:39.418Z,12.69
2023-04-15T13:33:05.892Z,12.79
2023-04-15T13:35:32.330Z,13.26
2023-04-15T13:37:58.665Z,12.93
2023-04-15T13:40:25.356Z,12.95
2023-04-15T13:42:53.127Z,12.95
2023-04-15T13:45:19.510Z,13.16
2023-04-15T13:47:45.935Z,12.81
2023-04-15T13:50:12.562Z,12.75
2023-04-15T13:52:38.944Z,12.79
2023-04-15T13:55:10.270Z,12.68
2023-04-15T13:57:47.140Z,12.83
2023-04-15T14:00:13.957Z,13.27
2023-04-15T14:02:40.603Z,12.61
2023-04-15T14:05:07.224Z,12.88
2023-04-15T14:07:33.539Z,13.27
2023-04-15T14:09:59.921Z,13.19
2023-04-15T14:12:26.263Z,12.91
2023-04-15T14:14:52.850Z,13.06
2023-04-15T14:17:19.241Z,12.79
2023-04-15T14:19:45.592Z,12.45
2023-04-15T14:22:11.929Z,12.38
2023-04-15T14:24:38.257Z,12.93
2023-04-15T14:27:04.660Z,13.15
2023-04-15T14:29:31.196Z,12.58
2023-04-15T14:32:03.953Z,12.51
2023-04-15T14:34:38.813Z,12.83
2023-04-15T14:37:05.228Z,12.86
2023-04-15T14:39:31.607Z,12.55
2023-04-15T14:41:57.993Z,12.53
2023-04-15T14:44:24.355Z,12.63
2023-04-15T14:46:50.742Z,12.64
2023-04-15T14:49:17.199Z,12.62
2023-04-15T14:51:43.556Z,12.45
2023-04-15T14:54:09.909Z,12.58
2023-04-15T14:56:36.276Z,12.81
2023-04-15T14:59:02.979Z,12.83
2023-04-15T15:01:30.268Z,12.43
2023-04-15T15:03:56.700Z,12.56
2023-04-15T15:06:23.188Z,12.58
2023-04-15T15:08:49.576Z,12.66
2023-04-15T15:11:16.250Z,12.75
2023-04-15T15:13:42.601Z,12.62
2023-04-15T15:16:09.146Z,12.28
2023-04-15T15:18:35.690Z,12.57
2023-04-15T15:21:02.076Z,12.67
2023-04-15T15:23:28.462Z,12.81
2023-04-15T15:25:54.872Z,12.54
2023-04-15T15:28:21.852Z,11.98
2023-04-15T15:30:48.232Z,12.38
2023-04-15T15:33:14.607Z,13.01
2023-04-15T15:35:41.126Z,12.80
2023-04-15T15:38:07.500Z,12.59
2023-04-15T15:40:33.885Z,12.48
2023-04-15T15:43:00.268Z,12.15
2023-04-15T15:45:27.350Z,12.46
2023-04-15T15:47:53.714Z,12.11
2023-04-15T15:50:20.213Z,12.07
2023-04-15T15:52:46.612Z,12.38
2023-04-15T15:55:12.962Z,12.35
2023-04-15T15:57:39.344Z,12.63
2023-04-15T16:00:12.043Z,12.17
2023-04-15T16:05:08.487Z,12.24
2023-04-15T16:07:34.942Z,11.90
2023-04-15T16:10:01.286Z,12.20
2023-04-15T16:12:27.752Z,12.09
2023-04-15T16:14:54.189Z,11.93
2023-04-15T16:17:20.537Z,12.04
2023-04-15T16:19:57.647Z,12.29
2023-04-15T16:22:27.301Z,12.30
2023-04-15T16:24:54.098Z,11.80
2023-04-15T16:27:20.496Z,11.94
2023-04-15T16:29:46.871Z,11.96
2023-04-15T16:32:13.358Z,11.74
2023-04-15T16:34:41.178Z,11.95
2023-04-15T16:37:07.600Z,11.86
2023-04-15T16:39:34.008Z,11.87
2023-04-15T16:42:00.399Z,11.77
2023-04-15T16:44:26.778Z,12.13
2023-04-15T16:46:53.160Z,11.96
2023-04-15T16:49:19.525Z,11.92
2023-04-15T16:51:45.898Z,12.09
2023-04-15T16:54:12.248Z,11.77
2023-04-15T16:56:38.600Z,11.95
2023-04-15T16:59:05.232Z,11.83
2023-04-15T17:01:31.959Z,11.66
2023-04-15T17:03:58.500Z,11.76
2023-04-15T17:06:24.963Z,11.64
2023-04-15T17:08:51.534Z,11.57
2023-04-15T17:11:18.004Z,11.38
2023-04-15T17:13:44.352Z,11.38
2023-04-15T17:16:10.853Z,11.22
2023-04-15T17:18:37.340Z,11.19
2023-04-15T17:21:03.690Z,10.89
2023-04-15T17:23:30.860Z,11.11
2023-04-15T17:25:57.231Z,11.22
2023-04-15T17:28:23.670Z,11.26
2023-04-15T17:30:50.059Z,11.35
2023-04-15T17:33:56.516Z,11.35
2023-04-15T17:36:02.946Z,11.19
2023-04-15T17:38:29.324Z,11.24
2023-04-15T17:40:55.658Z,11.49
2023-04-15T17:43:22.073Z,11.27
2023-04-15T17:45:48.496Z,11.19
2023-04-15T17:48:14.945Z,11.28
2023-04-15T17:50:41.347Z,11.41
2023-04-15T17:53:07.709Z,11.81
2023-04-15T17:55:34.058Z,11.95
2023-04-15T17:58:00.431Z,12.11
2023-04-15T18:00:26.818Z,11.29
2023-04-15T18:02:53.292Z,11.48
2023-04-15T18:05:20.106Z,11.68
2023-04-15T18:07:46.615Z,11.48
2023-04-15T18:10:13.246Z,11.29
2023-04-15T18:12:39.675Z,11.33
2023-04-15T18:15:06.235Z,11.29
2023-04-15T18:17:32.661Z,11.54
2023-04-15T18:19:59.203Z,11.14
2023-04-15T18:22:25.752Z,10.94
2023-04-15T18:24:52.190Z,10.92
2023-04-15T18:27:18.749Z,10.97
2023-04-15T18:29:45.182Z,11.40
2023-04-15T18:32:11.559Z,11.57
2023-04-15T18:34:38.309Z,11.33
2023-04-15T18:37:05.390Z,11.00
2023-04-15T18:39:31.758Z,10.86
2023-04-15T18:41:58.166Z,11.30
2023-04-15T18:44:24.635Z,11.05
2023-04-15T18:46:50.986Z,11.45
2023-04-15T18:49:17.495Z,11.06
2023-04-15T18:51:43.912Z,10.91
2023-04-15T18:54:10.609Z,11.21
2023-04-15T18:56:37.020Z,10.94
2023-04-15T18:59:28.974Z,11.08
2023-04-15T19:01:50.310Z,10.98
2023-04-15T19:04:17.181Z,10.65
2023-04-15T19:06:43.728Z,10.61
2023-04-15T19:09:10.655Z,10.48
2023-04-15T19:11:37.852Z,10.02
2023-04-15T19:14:04.374Z,10.13
2023-04-15T19:16:30.852Z,10.37
2023-04-15T19:18:57.420Z,10.60
2023-04-15T19:21:23.823Z,10.60
2023-04-15T19:23:50.873Z,10.73
2023-04-15T19:26:17.945Z,10.59
2023-04-15T19:28:44.416Z,10.45
2023-04-15T19:31:10.836Z,10.44
2023-04-15T19:33:37.430Z,10.27
2023-04-15T19:36:04.225Z,10.11
2023-04-15T19:38:31.104Z,10.10
2023-04-15T19:40:57.567Z,10.07
2023-04-15T19:43:24.036Z,9.83
2023-04-15T19:45:52.329Z,10.24
2023-04-15T19:48:19.525Z,10.13
2023-04-15T19:50:45.927Z,10.10
2023-04-15T19:53:12.291Z,9.95
2023-04-15T19:55:38.894Z,10.22
2023-04-15T19:58:05.947Z,10.08
2023-04-15T20:00:32.278Z,10.35
2023-04-15T20:02:58.968Z,10.30
2023-04-15T20:05:25.439Z,10.50
2023-04-15T20:07:53.118Z,10.99
2023-04-15T20:10:19.523Z,10.32
2023-04-15T20:12:49.546Z,10.23
2023-04-15T20:15:19.130Z,10.67
2023-04-15T20:17:46.113Z,10.17
2023-04-15T20:20:12.597Z,10.31
2023-04-15T20:22:38.960Z,10.46
2023-04-15T20:25:05.349Z,10.27
2023-04-15T20:27:31.920Z,10.05
2023-04-15T20:29:58.336Z,10.30
2023-04-15T20:32:24.907Z,10.40
2023-04-15T20:34:53.544Z,10.33
2023-04-15T20:37:22.773Z,10.45
2023-04-15T20:39:49.852Z,10.60
2023-04-15T20:42:19.440Z,10.12
2023-04-15T20:44:45.795Z,10.55
2023-04-15T20:47:12.337Z,10.54
2023-04-15T20:49:38.964Z,11.63
2023-04-15T20:52:08.351Z,11.73
2023-04-15T20:54:34.727Z,11.81
2023-04-15T20:57:02.105Z,11.57
2023-04-15T20:59:28.555Z,11.39
2023-04-15T21:01:56.939Z,11.24
2023-04-15T21:04:24.423Z,11.43
2023-04-15T21:06:52.042Z,11.45
2023-04-15T21:09:19.625Z,11.51
2023-04-15T21:14:20.046Z,11.32
2023-04-15T21:16:47.261Z,11.14
2023-04-15T21:19:14.581Z,11.14
2023-04-15T21:21:41.036Z,11.47
2023-04-15T21:24:10.675Z,11.55
2023-04-15T21:26:37.238Z,12.01
2023-04-15T21:29:03.885Z,11.55
2023-04-15T21:31:31.484Z,11.55
2023-04-15T21:34:00.725Z,11.36
2023-04-15T21:36:28.346Z,10.95
2023-04-15T21:38:55.016Z,11.06
2023-04-15T21:41:21.435Z,11.06
2023-04-15T21:43:47.783Z,10.98
2023-04-15T21:46:23.503Z,11.28
2023-04-15T21:48:54.300Z,11.15
2023-04-15T21:51:22.640Z,11.18
2023-04-15T21:53:49.014Z,11.02
2023-04-15T21:56:15.771Z,11.03
2023-04-15T21:58:42.921Z,10.86
2023-04-15T22:01:09.301Z,10.94
2023-04-15T22:03:35.914Z,10.98
2023-04-15T22:06:02.976Z,10.96
2023-04-15T22:08:31.004Z,11.32
2023-04-15T22:11:00.107Z,11.49
2023-04-15T22:13:29.751Z,11.26
2023-04-15T22:15:58.359Z,11.18
2023-04-15T22:18:24.719Z,11.40
2023-04-15T22:20:51.176Z,11.12
2023-04-15T22:23:20.717Z,11.72
2023-04-15T22:25:50.141Z,12.09
2023-04-15T22:28:17.380Z,12.00
2023-04-15T22:30:43.860Z,11.99
2023-04-15T22:33:10.288Z,11.41
2023-04-15T22:35:37.284Z,11.60
2023-04-15T22:38:03.836Z,11.52
2023-04-15T22:40:30.967Z,11.45
2023-04-15T22:42:59.232Z,11.41
2023-04-15T22:45:25.997Z,11.45
2023-04-15T22:47:53.083Z,10.99
2023-04-15T22:50:19.496Z,11.32
2023-04-15T22:52:46.649Z,10.87
2023-04-15T22:55:13.094Z,11.10
2023-04-15T22:57:39.594Z,11.24
2023-04-15T23:00:06.188Z,11.40
2023-04-15T23:02:33.300Z,11.04
2023-04-15T23:04:59.971Z,11.11
2023-04-15T23:07:28.902Z,11.02
2023-04-15T23:09:55.381Z,11.42
2023-04-15T23:12:21.771Z,11.13
2023-04-15T23:14:48.179Z,11.06
2023-04-15T23:17:14.569Z,11.13
2023-04-15T23:19:41.146Z,11.08
2023-04-15T23:22:10.478Z,11.79
2023-04-15T23:24:36.946Z,11.42
2023-04-15T23:27:03.357Z,11.16
2023-04-15T23:29:29.703Z,11.40
2023-04-15T23:31:56.147Z,11.59
2023-04-15T23:34:22.656Z,11.27
2023-04-15T23:36:48.978Z,11.10
2023-04-15T23:39:15.769Z,11.08
2023-04-15T23:41:42.273Z,11.18
2023-04-15T23:44:09.675Z,10.69
2023-04-15T23:46:36.142Z,11.27
2023-04-15T23:49:02.542Z,10.88
2023-04-15T23:51:28.898Z,11.02
2023-04-15T23:53:55.258Z,11.88
2023-04-15T23:56:21.833Z,12.46
2023-04-15T23:58:48.250Z,12.30
